Airfield :
LOGIN :

Register | Disclaimer

   EN    FR    IT 

 










Legend :    VFR   Marginal VFR   IFR   Intensive IFR   Very Intensive IFR
Visi :
Ceiling :
>= 8 km
>= 3000ft
5 to 8 km
1000 to 3000 ft
1500m to 5 km
500 to 1000 ft
800 to 1500m
200 to 500 ft
< 800m
< 200 ft
Symbols :   Thunderstorms  Fog  Heavy snow  Heavy precipitations  Wind > 20 kt
SIGMETs :     Misc.  Thunderstorms  Icing  Turbulence  Mountain Waves  Volcanic Ashes






- Airport Elevation : 3 ft
- IATA code : LWR


EHLW - Leuuwarden Air Base

CURRENT METAR :
  • 182025Z AUTO 20017G27KT 160V230 9999 FEW031 12/09 Q1002 BLU

EXPIRED METARs :
  • 181955Z AUTO 20017G27KT 160V230 9999 FEW230 12/09 Q1002 BLU
  • 181925Z AUTO 20014KT 160V230 9999 NCD 12/09 Q1002 BLU
  • 181855Z AUTO 20014G24KT 170V230 9999 NCD 12/08 Q1002 BLU
  • 181825Z AUTO 20014KT 160V230 9999 FEW060 SCT085 OVC190 11/08 Q1002 BLU
  • 181755Z AUTO 20014KT 160V230 9999 FEW015CB SCT066 BKN085 12/09 Q1002 BLU
  • 181739Z AUTO 20014KT 140V230 9999 -SHRA SCT015CB OVC055 12/10 Q1002 WHT
  • 181732Z AUTO 20014KT 160V230 9999 -SHRA FEW015CB BKN051 OVC059 12/10 Q1002 BLU

TAF TAF EHLW
Valid from the 18 at 17:00 until the 19 at 05:00 UTC


181616Z 1817/1905 21015G25KT 9999 BKN045
TEMPO 1813/1905 22023G35KT SCT017CB BKN050
PROB30
TEMPO 1813/1824 4000 SHRA TSRA SCT013 SCT015CB



MET'MAP, your aeronautical weather chart ! - Copyright ORBIFLY December 2007 - Disclaimer

ORBIFLY MET'MAP TEAM :

Programming & Development : Alexandra Zaïnal
Concept & Development : Baudouin d'Aumeries
Co-Development & Prog : Marc-Olivier Méhu
Technical & hardware support : Manuel Goepfert

Contact : metmap@orbifly.com




SOURCES & CREDITS :

   NOAA